sensor_id;sensor_type;location;lat;lon;timestamp;P1;durP1;ratioP1;P2;durP2;ratioP2
19883;SDS011;10104;50.732;10.174;2023-04-03T00:01:54;4.20;;;1.77;;
19883;SDS011;10104;50.732;10.174;2023-04-03T00:04:15;6.27;;;2.00;;
19883;SDS011;10104;50.732;10.174;2023-04-03T00:06:37;8.93;;;2.10;;
19883;SDS011;10104;50.732;10.174;2023-04-03T00:08:58;8.33;;;2.37;;
19883;SDS011;10104;50.732;10.174;2023-04-03T00:11:20;5.00;;;2.00;;
19883;SDS011;10104;50.732;10.174;2023-04-03T00:13:42;3.87;;;1.90;;
19883;SDS011;10104;50.732;10.174;2023-04-03T00:16:04;6.07;;;2.23;;
19883;SDS011;10104;50.732;10.174;2023-04-03T00:18:26;7.67;;;1.87;;
19883;SDS011;10104;50.732;10.174;2023-04-03T00:20:47;4.40;;;2.07;;
19883;SDS011;10104;50.732;10.174;2023-04-03T00:23:09;6.93;;;2.00;;
19883;SDS011;10104;50.732;10.174;2023-04-03T00:25:31;6.33;;;2.00;;
19883;SDS011;10104;50.732;10.174;2023-04-03T00:27:52;7.70;;;2.47;;
19883;SDS011;10104;50.732;10.174;2023-04-03T00:30:15;5.00;;;1.90;;
19883;SDS011;10104;50.732;10.174;2023-04-03T00:32:37;4.70;;;1.97;;
19883;SDS011;10104;50.732;10.174;2023-04-03T00:34:59;4.67;;;2.00;;
19883;SDS011;10104;50.732;10.174;2023-04-03T00:37:20;5.33;;;2.10;;
19883;SDS011;10104;50.732;10.174;2023-04-03T00:39:42;7.53;;;2.07;;
19883;SDS011;10104;50.732;10.174;2023-04-03T00:42:04;3.80;;;1.80;;
19883;SDS011;10104;50.732;10.174;2023-04-03T00:46:56;7.20;;;2.00;;
19883;SDS011;10104;50.732;10.174;2023-04-03T00:49:17;6.87;;;2.10;;
19883;SDS011;10104;50.732;10.174;2023-04-03T00:51:39;7.40;;;2.43;;
19883;SDS011;10104;50.732;10.174;2023-04-03T00:54:02;5.90;;;2.13;;
19883;SDS011;10104;50.732;10.174;2023-04-03T00:56:26;6.83;;;1.93;;
19883;SDS011;10104;50.732;10.174;2023-04-03T00:58:51;9.47;;;2.13;;
19883;SDS011;10104;50.732;10.174;2023-04-03T01:01:21;3.60;;;1.60;;
19883;SDS011;10104;50.732;10.174;2023-04-03T01:03:46;6.10;;;2.20;;
19883;SDS011;10104;50.732;10.174;2023-04-03T01:06:07;4.97;;;1.77;;
19883;SDS011;10104;50.732;10.174;2023-04-03T01:08:29;5.77;;;1.83;;
19883;SDS011;10104;50.732;10.174;2023-04-03T01:10:51;5.33;;;2.10;;
19883;SDS011;10104;50.732;10.174;2023-04-03T01:13:26;4.00;;;2.00;;
19883;SDS011;10104;50.732;10.174;2023-04-03T01:15:50;6.53;;;2.50;;
19883;SDS011;10104;50.732;10.174;2023-04-03T01:18:12;9.20;;;2.30;;
19883;SDS011;10104;50.732;10.174;2023-04-03T01:25:31;6.93;;;2.33;;
19883;SDS011;10104;50.732;10.174;2023-04-03T01:27:53;7.07;;;2.03;;
19883;SDS011;10104;50.732;10.174;2023-04-03T01:30:15;7.63;;;2.60;;
19883;SDS011;10104;50.732;10.174;2023-04-03T01:32:39;7.00;;;2.30;;
19883;SDS011;10104;50.732;10.174;2023-04-03T01:35:00;5.73;;;2.40;;
19883;SDS011;10104;50.732;10.174;2023-04-03T01:37:21;6.77;;;2.37;;
19883;SDS011;10104;50.732;10.174;2023-04-03T01:39:43;3.83;;;1.90;;
19883;SDS011;10104;50.732;10.174;2023-04-03T01:42:04;7.50;;;2.27;;
19883;SDS011;10104;50.732;10.174;2023-04-03T01:44:26;5.10;;;2.37;;
19883;SDS011;10104;50.732;10.174;2023-04-03T01:46:48;5.83;;;2.47;;
19883;SDS011;10104;50.732;10.174;2023-04-03T01:49:09;12.40;;;2.40;;
19883;SDS011;10104;50.732;10.174;2023-04-03T01:51:31;6.53;;;2.30;;
19883;SDS011;10104;50.732;10.174;2023-04-03T01:53:54;5.40;;;2.20;;
19883;SDS011;10104;50.732;10.174;2023-04-03T01:56:15;4.20;;;2.20;;
19883;SDS011;10104;50.732;10.174;2023-04-03T01:58:37;7.87;;;2.47;;
19883;SDS011;10104;50.732;10.174;2023-04-03T02:00:58;5.23;;;2.60;;
19883;SDS011;10104;50.732;10.174;2023-04-03T02:03:20;7.87;;;2.50;;
19883;SDS011;10104;50.732;10.174;2023-04-03T02:05:41;6.63;;;2.30;;
19883;SDS011;10104;50.732;10.174;2023-04-03T02:08:03;11.17;;;2.50;;
19883;SDS011;10104;50.732;10.174;2023-04-03T02:10:25;3.93;;;2.40;;
19883;SDS011;10104;50.732;10.174;2023-04-03T02:12:46;5.53;;;2.50;;
19883;SDS011;10104;50.732;10.174;2023-04-03T02:15:08;6.80;;;2.70;;
19883;SDS011;10104;50.732;10.174;2023-04-03T02:17:30;6.33;;;2.07;;
19883;SDS011;10104;50.732;10.174;2023-04-03T02:19:51;9.00;;;2.70;;
19883;SDS011;10104;50.732;10.174;2023-04-03T02:22:13;4.57;;;2.40;;
19883;SDS011;10104;50.732;10.174;2023-04-03T02:24:34;7.87;;;2.37;;
19883;SDS011;10104;50.732;10.174;2023-04-03T02:26:56;4.20;;;2.10;;
19883;SDS011;10104;50.732;10.174;2023-04-03T02:29:18;6.30;;;2.50;;
19883;SDS011;10104;50.732;10.174;2023-04-03T02:31:39;5.10;;;2.30;;
19883;SDS011;10104;50.732;10.174;2023-04-03T02:34:01;6.83;;;2.63;;
19883;SDS011;10104;50.732;10.174;2023-04-03T02:36:22;6.50;;;2.80;;
19883;SDS011;10104;50.732;10.174;2023-04-03T02:38:43;10.40;;;3.37;;
19883;SDS011;10104;50.732;10.174;2023-04-03T02:41:08;6.13;;;2.63;;
19883;SDS011;10104;50.732;10.174;2023-04-03T02:43:31;7.67;;;2.60;;
19883;SDS011;10104;50.732;10.174;2023-04-03T02:45:53;11.83;;;3.00;;
19883;SDS011;10104;50.732;10.174;2023-04-03T02:48:14;7.93;;;3.23;;
19883;SDS011;10104;50.732;10.174;2023-04-03T02:50:37;9.53;;;2.77;;
19883;SDS011;10104;50.732;10.174;2023-04-03T02:52:59;4.63;;;2.40;;
19883;SDS011;10104;50.732;10.174;2023-04-03T02:55:20;6.77;;;3.10;;
19883;SDS011;10104;50.732;10.174;2023-04-03T02:57:42;4.87;;;2.40;;
19883;SDS011;10104;50.732;10.174;2023-04-03T03:00:04;4.93;;;2.40;;
19883;SDS011;10104;50.732;10.174;2023-04-03T03:02:26;8.07;;;2.80;;
19883;SDS011;10104;50.732;10.174;2023-04-03T03:04:47;8.03;;;3.00;;
19883;SDS011;10104;50.732;10.174;2023-04-03T03:07:09;8.07;;;2.97;;
19883;SDS011;10104;50.732;10.174;2023-04-03T03:09:31;9.13;;;3.17;;
19883;SDS011;10104;50.732;10.174;2023-04-03T03:11:53;10.27;;;3.37;;
19883;SDS011;10104;50.732;10.174;2023-04-03T03:14:14;5.93;;;2.67;;
19883;SDS011;10104;50.732;10.174;2023-04-03T03:16:36;10.53;;;3.00;;
19883;SDS011;10104;50.732;10.174;2023-04-03T03:18:58;7.30;;;3.13;;
19883;SDS011;10104;50.732;10.174;2023-04-03T03:21:19;7.67;;;3.07;;
19883;SDS011;10104;50.732;10.174;2023-04-03T03:23:41;7.03;;;2.40;;
19883;SDS011;10104;50.732;10.174;2023-04-03T03:26:04;6.13;;;3.00;;
19883;SDS011;10104;50.732;10.174;2023-04-03T03:28:27;9.20;;;2.73;;
19883;SDS011;10104;50.732;10.174;2023-04-03T03:30:48;8.80;;;2.97;;
19883;SDS011;10104;50.732;10.174;2023-04-03T03:33:10;8.57;;;3.10;;
19883;SDS011;10104;50.732;10.174;2023-04-03T03:35:32;6.07;;;3.40;;
19883;SDS011;10104;50.732;10.174;2023-04-03T03:37:53;6.23;;;2.77;;
19883;SDS011;10104;50.732;10.174;2023-04-03T03:40:15;10.03;;;3.13;;
19883;SDS011;10104;50.732;10.174;2023-04-03T03:42:38;8.47;;;3.03;;
19883;SDS011;10104;50.732;10.174;2023-04-03T03:45:00;5.13;;;2.87;;
19883;SDS011;10104;50.732;10.174;2023-04-03T03:47:21;6.60;;;2.80;;
19883;SDS011;10104;50.732;10.174;2023-04-03T03:49:43;8.53;;;3.17;;
19883;SDS011;10104;50.732;10.174;2023-04-03T03:52:04;7.80;;;2.97;;
19883;SDS011;10104;50.732;10.174;2023-04-03T03:54:26;7.07;;;3.10;;
19883;SDS011;10104;50.732;10.174;2023-04-03T03:56:47;4.67;;;2.67;;
19883;SDS011;10104;50.732;10.174;2023-04-03T03:59:11;11.20;;;3.40;;
19883;SDS011;10104;50.732;10.174;2023-04-03T04:01:33;8.80;;;3.20;;
19883;SDS011;10104;50.732;10.174;2023-04-03T04:03:54;7.23;;;3.43;;
19883;SDS011;10104;50.732;10.174;2023-04-03T04:06:17;6.90;;;2.90;;
19883;SDS011;10104;50.732;10.174;2023-04-03T04:08:38;9.77;;;3.50;;
19883;SDS011;10104;50.732;10.174;2023-04-03T04:11:00;9.17;;;2.90;;
19883;SDS011;10104;50.732;10.174;2023-04-03T04:13:21;6.10;;;3.27;;
19883;SDS011;10104;50.732;10.174;2023-04-03T04:15:43;9.83;;;3.63;;
19883;SDS011;10104;50.732;10.174;2023-04-03T04:18:04;6.47;;;3.20;;
19883;SDS011;10104;50.732;10.174;2023-04-03T04:20:26;8.00;;;3.40;;
19883;SDS011;10104;50.732;10.174;2023-04-03T04:22:48;5.63;;;3.20;;
19883;SDS011;10104;50.732;10.174;2023-04-03T04:25:09;6.60;;;3.40;;
19883;SDS011;10104;50.732;10.174;2023-04-03T04:27:31;8.80;;;3.60;;
19883;SDS011;10104;50.732;10.174;2023-04-03T04:29:52;6.30;;;2.93;;
19883;SDS011;10104;50.732;10.174;2023-04-03T04:32:14;8.87;;;3.50;;
19883;SDS011;10104;50.732;10.174;2023-04-03T04:34:36;6.50;;;3.90;;
19883;SDS011;10104;50.732;10.174;2023-04-03T04:36:57;10.53;;;3.80;;
19883;SDS011;10104;50.732;10.174;2023-04-03T04:39:19;10.93;;;4.07;;
19883;SDS011;10104;50.732;10.174;2023-04-03T04:41:40;8.37;;;3.60;;
19883;SDS011;10104;50.732;10.174;2023-04-03T04:44:02;7.40;;;3.20;;
19883;SDS011;10104;50.732;10.174;2023-04-03T04:46:23;7.83;;;3.70;;
19883;SDS011;10104;50.732;10.174;2023-04-03T04:48:45;6.90;;;4.13;;
19883;SDS011;10104;50.732;10.174;2023-04-03T04:51:07;7.23;;;3.67;;
19883;SDS011;10104;50.732;10.174;2023-04-03T04:53:28;5.87;;;3.53;;
19883;SDS011;10104;50.732;10.174;2023-04-03T04:55:51;7.47;;;3.87;;
19883;SDS011;10104;50.732;10.174;2023-04-03T04:58:13;9.27;;;3.83;;
19883;SDS011;10104;50.732;10.174;2023-04-03T05:00:34;9.50;;;3.80;;
19883;SDS011;10104;50.732;10.174;2023-04-03T05:02:56;9.60;;;4.03;;
19883;SDS011;10104;50.732;10.174;2023-04-03T05:05:17;10.83;;;4.30;;
19883;SDS011;10104;50.732;10.174;2023-04-03T05:07:39;6.07;;;3.50;;
19883;SDS011;10104;50.732;10.174;2023-04-03T05:10:02;8.40;;;4.27;;
19883;SDS011;10104;50.732;10.174;2023-04-03T05:12:24;5.27;;;3.70;;
19883;SDS011;10104;50.732;10.174;2023-04-03T05:14:46;9.80;;;4.03;;
19883;SDS011;10104;50.732;10.174;2023-04-03T05:17:07;7.40;;;4.50;;
19883;SDS011;10104;50.732;10.174;2023-04-03T05:19:29;10.37;;;3.97;;
19883;SDS011;10104;50.732;10.174;2023-04-03T05:21:50;6.70;;;4.07;;
19883;SDS011;10104;50.732;10.174;2023-04-03T05:24:12;6.17;;;3.97;;
19883;SDS011;10104;50.732;10.174;2023-04-03T05:26:33;12.57;;;5.17;;
19883;SDS011;10104;50.732;10.174;2023-04-03T05:28:55;12.07;;;5.50;;
19883;SDS011;10104;50.732;10.174;2023-04-03T05:31:17;8.97;;;5.17;;
19883;SDS011;10104;50.732;10.174;2023-04-03T05:33:38;10.90;;;6.07;;
19883;SDS011;10104;50.732;10.174;2023-04-03T05:36:03;6.63;;;4.60;;
19883;SDS011;10104;50.732;10.174;2023-04-03T05:38:26;10.03;;;4.00;;
19883;SDS011;10104;50.732;10.174;2023-04-03T05:40:50;11.93;;;5.30;;
19883;SDS011;10104;50.732;10.174;2023-04-03T05:43:11;9.60;;;5.37;;
19883;SDS011;10104;50.732;10.174;2023-04-03T05:45:33;8.53;;;4.60;;
19883;SDS011;10104;50.732;10.174;2023-04-03T05:47:54;7.17;;;4.37;;
19883;SDS011;10104;50.732;10.174;2023-04-03T05:50:16;8.43;;;5.50;;
19883;SDS011;10104;50.732;10.174;2023-04-03T05:52:38;8.17;;;5.07;;
19883;SDS011;10104;50.732;10.174;2023-04-03T05:55:03;7.23;;;5.13;;
19883;SDS011;10104;50.732;10.174;2023-04-03T05:57:25;10.40;;;5.30;;
19883;SDS011;10104;50.732;10.174;2023-04-03T05:59:47;7.20;;;4.67;;
19883;SDS011;10104;50.732;10.174;2023-04-03T06:02:10;10.10;;;5.10;;
19883;SDS011;10104;50.732;10.174;2023-04-03T06:04:33;10.03;;;5.43;;
19883;SDS011;10104;50.732;10.174;2023-04-03T06:06:56;15.57;;;7.77;;
19883;SDS011;10104;50.732;10.174;2023-04-03T06:09:19;23.23;;;11.80;;
19883;SDS011;10104;50.732;10.174;2023-04-03T06:11:42;11.97;;;7.03;;
19883;SDS011;10104;50.732;10.174;2023-04-03T06:14:03;9.53;;;5.73;;
19883;SDS011;10104;50.732;10.174;2023-04-03T06:16:25;14.83;;;7.07;;
19883;SDS011;10104;50.732;10.174;2023-04-03T06:18:46;12.80;;;7.43;;
19883;SDS011;10104;50.732;10.174;2023-04-03T06:21:08;22.37;;;11.87;;
19883;SDS011;10104;50.732;10.174;2023-04-03T06:23:29;14.57;;;6.70;;
19883;SDS011;10104;50.732;10.174;2023-04-03T06:25:51;9.97;;;7.10;;
19883;SDS011;10104;50.732;10.174;2023-04-03T06:28:12;11.00;;;6.13;;
19883;SDS011;10104;50.732;10.174;2023-04-03T06:30:34;11.97;;;6.17;;
19883;SDS011;10104;50.732;10.174;2023-04-03T06:32:56;11.13;;;5.93;;
19883;SDS011;10104;50.732;10.174;2023-04-03T06:35:18;11.67;;;5.80;;
19883;SDS011;10104;50.732;10.174;2023-04-03T06:37:39;10.27;;;6.00;;
19883;SDS011;10104;50.732;10.174;2023-04-03T06:40:01;20.63;;;11.60;;
19883;SDS011;10104;50.732;10.174;2023-04-03T06:42:24;20.67;;;8.93;;
19883;SDS011;10104;50.732;10.174;2023-04-03T06:44:45;12.87;;;7.77;;
19883;SDS011;10104;50.732;10.174;2023-04-03T06:47:09;9.90;;;5.77;;
19883;SDS011;10104;50.732;10.174;2023-04-03T06:49:32;10.37;;;5.70;;
19883;SDS011;10104;50.732;10.174;2023-04-03T06:51:54;8.50;;;5.97;;
19883;SDS011;10104;50.732;10.174;2023-04-03T06:54:17;9.07;;;5.83;;
19883;SDS011;10104;50.732;10.174;2023-04-03T06:56:39;11.10;;;5.80;;
19883;SDS011;10104;50.732;10.174;2023-04-03T06:59:01;12.87;;;6.13;;
19883;SDS011;10104;50.732;10.174;2023-04-03T07:01:24;10.10;;;6.20;;
19883;SDS011;10104;50.732;10.174;2023-04-03T07:03:47;9.07;;;5.07;;
19883;SDS011;10104;50.732;10.174;2023-04-03T07:06:10;7.80;;;4.73;;
19883;SDS011;10104;50.732;10.174;2023-04-03T07:08:34;8.33;;;4.93;;
19883;SDS011;10104;50.732;10.174;2023-04-03T07:10:55;10.33;;;5.03;;
19883;SDS011;10104;50.732;10.174;2023-04-03T07:13:17;8.10;;;4.97;;
19883;SDS011;10104;50.732;10.174;2023-04-03T07:15:38;10.47;;;4.60;;
19883;SDS011;10104;50.732;10.174;2023-04-03T07:18:00;6.67;;;4.90;;
19883;SDS011;10104;50.732;10.174;2023-04-03T07:20:22;9.10;;;4.47;;
19883;SDS011;10104;50.732;10.174;2023-04-03T07:22:43;8.40;;;4.67;;
19883;SDS011;10104;50.732;10.174;2023-04-03T07:25:05;6.70;;;4.23;;
19883;SDS011;10104;50.732;10.174;2023-04-03T07:27:28;19.20;;;7.53;;
19883;SDS011;10104;50.732;10.174;2023-04-03T07:29:49;8.23;;;4.70;;
19883;SDS011;10104;50.732;10.174;2023-04-03T07:32:11;8.80;;;4.90;;
19883;SDS011;10104;50.732;10.174;2023-04-03T07:34:32;14.27;;;8.03;;
19883;SDS011;10104;50.732;10.174;2023-04-03T07:36:54;14.63;;;7.53;;
19883;SDS011;10104;50.732;10.174;2023-04-03T07:39:16;12.13;;;5.87;;
19883;SDS011;10104;50.732;10.174;2023-04-03T07:41:37;9.13;;;4.70;;
19883;SDS011;10104;50.732;10.174;2023-04-03T07:43:59;10.20;;;5.27;;
19883;SDS011;10104;50.732;10.174;2023-04-03T07:46:20;7.80;;;4.60;;
19883;SDS011;10104;50.732;10.174;2023-04-03T07:48:42;12.17;;;5.23;;
19883;SDS011;10104;50.732;10.174;2023-04-03T07:51:04;8.63;;;4.57;;
19883;SDS011;10104;50.732;10.174;2023-04-03T07:53:26;8.27;;;4.30;;
19883;SDS011;10104;50.732;10.174;2023-04-03T07:55:48;10.33;;;4.87;;
19883;SDS011;10104;50.732;10.174;2023-04-03T07:58:13;7.07;;;3.53;;
19883;SDS011;10104;50.732;10.174;2023-04-03T08:00:37;5.47;;;3.20;;
19883;SDS011;10104;50.732;10.174;2023-04-03T08:02:59;7.60;;;3.87;;
19883;SDS011;10104;50.732;10.174;2023-04-03T08:05:21;6.33;;;3.73;;
19883;SDS011;10104;50.732;10.174;2023-04-03T08:07:42;6.23;;;3.60;;
19883;SDS011;10104;50.732;10.174;2023-04-03T08:10:04;8.17;;;3.30;;
19883;SDS011;10104;50.732;10.174;2023-04-03T08:12:26;6.87;;;3.40;;
19883;SDS011;10104;50.732;10.174;2023-04-03T08:14:49;4.03;;;2.90;;
19883;SDS011;10104;50.732;10.174;2023-04-03T08:17:11;6.90;;;3.10;;
19883;SDS011;10104;50.732;10.174;2023-04-03T08:19:32;4.57;;;3.30;;
19883;SDS011;10104;50.732;10.174;2023-04-03T08:21:54;10.73;;;4.27;;
19883;SDS011;10104;50.732;10.174;2023-04-03T08:24:16;7.27;;;4.13;;
19883;SDS011;10104;50.732;10.174;2023-04-03T08:26:38;5.47;;;4.03;;
19883;SDS011;10104;50.732;10.174;2023-04-03T08:28:59;8.23;;;3.97;;
19883;SDS011;10104;50.732;10.174;2023-04-03T08:31:21;10.17;;;3.70;;
19883;SDS011;10104;50.732;10.174;2023-04-03T08:33:44;5.73;;;3.00;;
19883;SDS011;10104;50.732;10.174;2023-04-03T08:36:07;7.13;;;4.00;;
19883;SDS011;10104;50.732;10.174;2023-04-03T08:38:37;7.43;;;3.83;;
19883;SDS011;10104;50.732;10.174;2023-04-03T08:40:59;4.57;;;3.23;;
19883;SDS011;10104;50.732;10.174;2023-04-03T08:43:30;10.20;;;3.53;;
19883;SDS011;10104;50.732;10.174;2023-04-03T08:45:55;9.97;;;3.40;;
19883;SDS011;10104;50.732;10.174;2023-04-03T08:48:39;7.80;;;3.20;;
19883;SDS011;10104;50.732;10.174;2023-04-03T08:51:04;7.77;;;3.33;;
19883;SDS011;10104;50.732;10.174;2023-04-03T08:53:34;7.30;;;3.00;;
19883;SDS011;10104;50.732;10.174;2023-04-03T08:56:03;10.60;;;2.67;;
19883;SDS011;10104;50.732;10.174;2023-04-03T08:58:29;6.73;;;3.27;;
19883;SDS011;10104;50.732;10.174;2023-04-03T09:01:03;4.17;;;2.50;;
19883;SDS011;10104;50.732;10.174;2023-04-03T09:03:29;6.27;;;2.40;;
19883;SDS011;10104;50.732;10.174;2023-04-03T09:05:53;5.77;;;2.70;;
19883;SDS011;10104;50.732;10.174;2023-04-03T09:08:24;5.63;;;2.57;;
19883;SDS011;10104;50.732;10.174;2023-04-03T09:10:51;4.30;;;2.40;;
19883;SDS011;10104;50.732;10.174;2023-04-03T09:13:33;5.77;;;2.87;;
19883;SDS011;10104;50.732;10.174;2023-04-03T09:16:03;5.43;;;3.10;;
19883;SDS011;10104;50.732;10.174;2023-04-03T09:18:38;8.73;;;4.30;;
19883;SDS011;10104;50.732;10.174;2023-04-03T09:21:13;5.73;;;3.87;;
19883;SDS011;10104;50.732;10.174;2023-04-03T09:26:19;9.33;;;4.00;;
19883;SDS011;10104;50.732;10.174;2023-04-03T09:28:47;8.67;;;4.00;;
19883;SDS011;10104;50.732;10.174;2023-04-03T09:31:14;8.63;;;3.90;;
19883;SDS011;10104;50.732;10.174;2023-04-03T09:33:40;11.93;;;5.93;;
19883;SDS011;10104;50.732;10.174;2023-04-03T09:36:02;8.30;;;4.73;;
19883;SDS011;10104;50.732;10.174;2023-04-03T09:38:24;5.07;;;3.60;;
19883;SDS011;10104;50.732;10.174;2023-04-03T09:40:50;7.63;;;3.33;;
19883;SDS011;10104;50.732;10.174;2023-04-03T09:43:31;7.67;;;3.20;;
19883;SDS011;10104;50.732;10.174;2023-04-03T09:45:54;9.00;;;2.97;;
19883;SDS011;10104;50.732;10.174;2023-04-03T09:48:18;8.10;;;3.10;;
19883;SDS011;10104;50.732;10.174;2023-04-03T09:50:56;3.57;;;2.07;;
19883;SDS011;10104;50.732;10.174;2023-04-03T09:56:03;5.83;;;2.63;;
19883;SDS011;10104;50.732;10.174;2023-04-03T09:59:07;3.80;;;1.93;;
19883;SDS011;10104;50.732;10.174;2023-04-03T10:01:34;6.60;;;2.50;;
19883;SDS011;10104;50.732;10.174;2023-04-03T10:04:02;6.00;;;2.10;;
19883;SDS011;10104;50.732;10.174;2023-04-03T10:06:31;3.30;;;1.90;;
19883;SDS011;10104;50.732;10.174;2023-04-03T10:09:00;3.57;;;2.00;;
19883;SDS011;10104;50.732;10.174;2023-04-03T10:11:26;6.77;;;1.80;;
19883;SDS011;10104;50.732;10.174;2023-04-03T10:13:55;3.87;;;1.50;;
19883;SDS011;10104;50.732;10.174;2023-04-03T10:16:21;6.00;;;1.87;;
19883;SDS011;10104;50.732;10.174;2023-04-03T10:26:45;3.70;;;1.50;;
19883;SDS011;10104;50.732;10.174;2023-04-03T10:29:24;3.00;;;1.20;;
19883;SDS011;10104;50.732;10.174;2023-04-03T10:34:44;2.77;;;1.50;;
19883;SDS011;10104;50.732;10.174;2023-04-03T10:37:27;3.67;;;1.53;;
19883;SDS011;10104;50.732;10.174;2023-04-03T10:42:28;2.40;;;1.33;;
19883;SDS011;10104;50.732;10.174;2023-04-03T10:50:58;4.67;;;1.50;;
19883;SDS011;10104;50.732;10.174;2023-04-03T10:59:25;3.53;;;1.30;;
19883;SDS011;10104;50.732;10.174;2023-04-03T11:01:54;4.33;;;1.73;;
19883;SDS011;10104;50.732;10.174;2023-04-03T11:04:21;4.80;;;1.80;;
19883;SDS011;10104;50.732;10.174;2023-04-03T11:06:48;3.40;;;1.50;;
19883;SDS011;10104;50.732;10.174;2023-04-03T11:11:47;7.17;;;1.80;;
19883;SDS011;10104;50.732;10.174;2023-04-03T11:14:31;3.03;;;1.57;;
19883;SDS011;10104;50.732;10.174;2023-04-03T11:17:19;6.90;;;2.10;;
19883;SDS011;10104;50.732;10.174;2023-04-03T11:19:41;6.57;;;3.53;;
19883;SDS011;10104;50.732;10.174;2023-04-03T11:22:09;4.90;;;1.73;;
19883;SDS011;10104;50.732;10.174;2023-04-03T11:24:36;4.53;;;2.10;;
19883;SDS011;10104;50.732;10.174;2023-04-03T11:27:02;5.00;;;1.60;;
19883;SDS011;10104;50.732;10.174;2023-04-03T11:29:29;5.90;;;2.70;;
19883;SDS011;10104;50.732;10.174;2023-04-03T11:32:06;4.70;;;3.30;;
19883;SDS011;10104;50.732;10.174;2023-04-03T11:34:39;5.90;;;2.20;;
19883;SDS011;10104;50.732;10.174;2023-04-03T11:37:05;2.77;;;1.40;;
19883;SDS011;10104;50.732;10.174;2023-04-03T11:39:34;4.63;;;2.10;;
19883;SDS011;10104;50.732;10.174;2023-04-03T11:44:38;2.90;;;1.30;;
19883;SDS011;10104;50.732;10.174;2023-04-03T11:47:00;3.40;;;1.53;;
19883;SDS011;10104;50.732;10.174;2023-04-03T12:05:47;4.33;;;1.60;;
19883;SDS011;10104;50.732;10.174;2023-04-03T12:13:31;3.73;;;1.53;;
19883;SDS011;10104;50.732;10.174;2023-04-03T12:15:53;6.80;;;1.33;;
19883;SDS011;10104;50.732;10.174;2023-04-03T12:18:31;4.00;;;1.40;;
19883;SDS011;10104;50.732;10.174;2023-04-03T12:21:02;2.97;;;1.40;;
19883;SDS011;10104;50.732;10.174;2023-04-03T12:23:34;6.03;;;2.60;;
19883;SDS011;10104;50.732;10.174;2023-04-03T12:26:40;4.73;;;1.47;;
19883;SDS011;10104;50.732;10.174;2023-04-03T12:28:43;6.67;;;2.00;;
19883;SDS011;10104;50.732;10.174;2023-04-03T12:31:05;3.83;;;1.60;;
19883;SDS011;10104;50.732;10.174;2023-04-03T12:36:22;3.87;;;1.20;;
19883;SDS011;10104;50.732;10.174;2023-04-03T12:44:53;3.27;;;1.70;;
19883;SDS011;10104;50.732;10.174;2023-04-03T12:47:35;2.93;;;1.10;;
19883;SDS011;10104;50.732;10.174;2023-04-03T12:50:02;4.07;;;1.40;;
19883;SDS011;10104;50.732;10.174;2023-04-03T12:52:33;4.77;;;1.67;;
19883;SDS011;10104;50.732;10.174;2023-04-03T12:55:01;3.58;;;1.60;;
19883;SDS011;10104;50.732;10.174;2023-04-03T12:57:25;4.28;;;1.77;;
19883;SDS011;10104;50.732;10.174;2023-04-03T12:59:48;2.53;;;1.67;;
19883;SDS011;10104;50.732;10.174;2023-04-03T13:02:14;3.45;;;1.50;;
19883;SDS011;10104;50.732;10.174;2023-04-03T13:04:42;2.38;;;1.40;;
19883;SDS011;10104;50.732;10.174;2023-04-03T13:07:03;2.88;;;1.60;;
19883;SDS011;10104;50.732;10.174;2023-04-03T13:09:26;2.33;;;1.80;;
19883;SDS011;10104;50.732;10.174;2023-04-03T13:11:55;3.33;;;2.20;;
19883;SDS011;10104;50.732;10.174;2023-04-03T13:14:22;3.53;;;2.05;;
19883;SDS011;10104;50.732;10.174;2023-04-03T13:16:58;3.95;;;2.55;;
19883;SDS011;10104;50.732;10.174;2023-04-03T13:19:37;4.60;;;2.67;;
19883;SDS011;10104;50.732;10.174;2023-04-03T13:22:06;6.78;;;5.10;;
19883;SDS011;10104;50.732;10.174;2023-04-03T13:24:37;4.25;;;2.42;;
19883;SDS011;10104;50.732;10.174;2023-04-03T13:27:00;4.35;;;2.10;;
19883;SDS011;10104;50.732;10.174;2023-04-03T13:29:31;3.55;;;2.13;;
19883;SDS011;10104;50.732;10.174;2023-04-03T13:31:54;5.95;;;1.95;;
19883;SDS011;10104;50.732;10.174;2023-04-03T13:34:17;3.53;;;2.20;;
19883;SDS011;10104;50.732;10.174;2023-04-03T13:36:46;7.75;;;1.88;;
19883;SDS011;10104;50.732;10.174;2023-04-03T13:41:38;6.95;;;4.00;;
19883;SDS011;10104;50.732;10.174;2023-04-03T13:46:43;5.20;;;1.50;;
19883;SDS011;10104;50.732;10.174;2023-04-03T13:49:17;3.00;;;1.70;;
19883;SDS011;10104;50.732;10.174;2023-04-03T13:51:49;3.80;;;1.57;;
19883;SDS011;10104;50.732;10.174;2023-04-03T13:54:34;2.57;;;1.67;;
19883;SDS011;10104;50.732;10.174;2023-04-03T13:56:58;4.17;;;1.57;;
19883;SDS011;10104;50.732;10.174;2023-04-03T13:59:22;6.73;;;2.17;;
19883;SDS011;10104;50.732;10.174;2023-04-03T14:04:25;3.73;;;1.67;;
19883;SDS011;10104;50.732;10.174;2023-04-03T14:06:50;3.53;;;1.60;;
19883;SDS011;10104;50.732;10.174;2023-04-03T14:09:13;3.93;;;1.80;;
19883;SDS011;10104;50.732;10.174;2023-04-03T14:11:35;4.37;;;2.20;;
19883;SDS011;10104;50.732;10.174;2023-04-03T14:13:58;5.47;;;2.80;;
19883;SDS011;10104;50.732;10.174;2023-04-03T14:16:23;4.63;;;2.40;;
19883;SDS011;10104;50.732;10.174;2023-04-03T14:18:48;3.17;;;1.77;;
19883;SDS011;10104;50.732;10.174;2023-04-03T14:21:12;4.57;;;2.20;;
19883;SDS011;10104;50.732;10.174;2023-04-03T14:23:34;5.87;;;2.30;;
19883;SDS011;10104;50.732;10.174;2023-04-03T14:25:56;4.73;;;1.90;;
19883;SDS011;10104;50.732;10.174;2023-04-03T14:28:18;2.73;;;2.00;;
19883;SDS011;10104;50.732;10.174;2023-04-03T14:30:43;6.80;;;1.70;;
19883;SDS011;10104;50.732;10.174;2023-04-03T14:33:05;2.90;;;1.80;;
19883;SDS011;10104;50.732;10.174;2023-04-03T14:35:27;2.90;;;1.97;;
19883;SDS011;10104;50.732;10.174;2023-04-03T14:37:49;5.85;;;3.25;;
19883;SDS011;10104;50.732;10.174;2023-04-03T14:40:13;7.43;;;4.05;;
19883;SDS011;10104;50.732;10.174;2023-04-03T14:42:37;4.43;;;2.92;;
19883;SDS011;10104;50.732;10.174;2023-04-03T14:44:59;4.18;;;2.05;;
19883;SDS011;10104;50.732;10.174;2023-04-03T14:47:26;6.65;;;2.85;;
19883;SDS011;10104;50.732;10.174;2023-04-03T14:49:52;4.13;;;2.88;;
19883;SDS011;10104;50.732;10.174;2023-04-03T14:55:05;3.47;;;1.90;;
19883;SDS011;10104;50.732;10.174;2023-04-03T14:57:28;4.93;;;1.88;;
19883;SDS011;10104;50.732;10.174;2023-04-03T14:59:51;4.03;;;1.70;;
19883;SDS011;10104;50.732;10.174;2023-04-03T15:02:21;4.15;;;1.73;;
19883;SDS011;10104;50.732;10.174;2023-04-03T15:04:48;5.55;;;2.00;;
19883;SDS011;10104;50.732;10.174;2023-04-03T15:07:13;5.03;;;1.90;;
19883;SDS011;10104;50.732;10.174;2023-04-03T15:09:34;4.28;;;1.75;;
19883;SDS011;10104;50.732;10.174;2023-04-03T15:11:57;4.85;;;2.22;;
19883;SDS011;10104;50.732;10.174;2023-04-03T15:14:18;3.20;;;1.60;;
19883;SDS011;10104;50.732;10.174;2023-04-03T15:16:57;2.90;;;1.80;;
19883;SDS011;10104;50.732;10.174;2023-04-03T15:19:18;7.93;;;1.90;;
19883;SDS011;10104;50.732;10.174;2023-04-03T15:21:40;3.67;;;1.48;;
19883;SDS011;10104;50.732;10.174;2023-04-03T15:24:02;2.55;;;1.60;;
19883;SDS011;10104;50.732;10.174;2023-04-03T15:26:24;4.10;;;1.88;;
19883;SDS011;10104;50.732;10.174;2023-04-03T15:28:46;3.28;;;1.60;;
19883;SDS011;10104;50.732;10.174;2023-04-03T15:31:08;3.58;;;1.90;;
19883;SDS011;10104;50.732;10.174;2023-04-03T15:33:30;3.45;;;1.80;;
19883;SDS011;10104;50.732;10.174;2023-04-03T15:35:53;9.20;;;8.27;;
19883;SDS011;10104;50.732;10.174;2023-04-03T15:38:27;6.10;;;1.83;;
19883;SDS011;10104;50.732;10.174;2023-04-03T15:40:48;5.22;;;2.10;;